Time;durP1;ratioP1;P1;durP2;ratioP2;P2;SDS_P1;SDS_P2;PMS_P1;PMS_P2;Temp;Humidity;BMP_temperature;BMP_pressure;BME280_temperature;BME280_humidity;BME280_pressure;Samples;Min_cycle;Max_cycle;Signal;HPM_P1;HPM_P2
2022/12/31 00:02:14;;;;;;;9.18;7.10;;;;;;;6.08;100.00;62626.34;5084000;28;20584;-75
2022/12/31 00:04:41;;;;;;;9.02;6.40;;;;;;;6.12;100.00;62625.41;5086488;28;20509;-77
2022/12/31 00:07:07;;;;;;;11.55;5.90;;;;;;;6.22;100.00;62638.25;5076529;28;20267;-76
2022/12/31 00:09:34;;;;;;;12.00;7.18;;;;;;;6.30;100.00;62646.47;5080537;28;20204;-77
2022/12/31 00:12:01;;;;;;;10.25;6.95;;;;;;;6.35;100.00;62656.19;5077938;28;20224;-75
2022/12/31 00:14:28;;;;;;;10.65;7.18;;;;;;;6.40;100.00;62658.81;5084399;28;20258;-75
2022/12/31 00:16:55;;;;;;;9.50;7.13;;;;;;;6.43;100.00;62656.84;5078968;28;20255;-76
2022/12/31 00:19:24;;;;;;;8.77;6.90;;;;;;;6.52;100.00;62671.19;5083781;28;20238;-76
2022/12/31 00:21:50;;;;;;;7.63;5.75;;;;;;;6.66;100.00;62683.59;5086151;28;20225;-76
2022/12/31 00:24:18;;;;;;;7.85;5.78;;;;;;;6.76;100.00;62691.41;5086687;28;20204;-76
2022/12/31 00:26:45;;;;;;;6.90;5.65;;;;;;;6.68;100.00;62690.22;5081538;28;20220;-77
2022/12/31 00:29:12;;;;;;;6.55;5.45;;;;;;;6.81;100.00;62701.09;5080471;28;20197;-78
2022/12/31 00:31:39;;;;;;;5.63;5.07;;;;;;;6.90;100.00;62710.88;5078408;28;20235;-76
2022/12/31 00:34:07;;;;;;;8.30;6.03;;;;;;;6.90;100.00;62705.31;5079665;28;20286;-76
2022/12/31 00:36:37;;;;;;;5.47;4.97;;;;;;;7.01;100.00;62719.72;5087241;28;20225;-77
2022/12/31 00:39:07;;;;;;;7.03;4.90;;;;;;;6.97;100.00;62715.06;5085693;28;20250;-78
2022/12/31 00:41:34;;;;;;;8.63;5.95;;;;;;;7.10;100.00;62727.97;5081153;28;20255;-77
2022/12/31 00:44:01;;;;;;;7.40;5.45;;;;;;;7.16;100.00;62734.69;5081544;28;20200;-76
2022/12/31 00:46:29;;;;;;;6.43;5.18;;;;;;;7.19;100.00;62740.31;5089322;28;20246;-76
2022/12/31 00:48:56;;;;;;;6.18;5.43;;;;;;;7.24;100.00;62742.41;5080646;28;20207;-75
2022/12/31 00:51:26;;;;;;;6.50;5.07;;;;;;;7.26;100.00;62750.06;5087605;28;20266;-76
2022/12/31 00:53:54;;;;;;;7.93;6.07;;;;;;;7.23;100.00;62741.88;5087670;28;20546;-76
2022/12/31 00:56:24;;;;;;;7.28;5.03;;;;;;;7.35;100.00;62751.75;5086759;28;20224;-77
2022/12/31 00:58:52;;;;;;;6.55;5.75;;;;;;;7.34;100.00;62752.72;5077184;28;20201;-76
2022/12/31 01:01:21;;;;;;;13.23;8.48;;;;;;;7.38;100.00;62757.38;5080828;28;20276;-78
2022/12/31 01:03:51;;;;;;;13.27;8.98;;;;;;;7.33;100.00;62747.16;5086905;28;20225;-76
2022/12/31 01:06:19;;;;;;;10.40;7.68;;;;;;;7.42;100.00;62761.00;5086482;28;20220;-76
2022/12/31 01:08:48;;;;;;;12.10;7.88;;;;;;;7.38;100.00;62759.91;5078804;28;20353;-77
2022/12/31 01:11:21;;;;;;;13.57;8.90;;;;;;;7.45;100.00;62764.09;5066828;28;20259;-76
2022/12/31 01:13:49;;;;;;;13.57;8.55;;;;;;;7.41;100.00;62762.47;5090627;28;20549;-76
2022/12/31 01:16:20;;;;;;;14.65;9.52;;;;;;;7.44;99.99;62763.56;5081591;28;20605;-76
2022/12/31 01:18:47;;;;;;;19.67;10.52;;;;;;;7.46;100.00;62767.63;5073241;28;20396;-76
2022/12/31 01:21:14;;;;;;;19.15;11.50;;;;;;;7.51;100.00;62770.78;5071062;28;20236;-76
2022/12/31 01:23:41;;;;;;;14.63;9.02;;;;;;;7.40;100.00;62759.44;5081645;28;20200;-76
2022/12/31 01:26:11;;;;;;;17.38;10.88;;;;;;;7.30;100.00;62749.13;5083541;28;20247;-76
2022/12/31 01:28:39;;;;;;;14.13;9.00;;;;;;;6.78;100.00;62695.47;5080627;28;20207;-74
2022/12/31 01:31:08;;;;;;;17.83;10.02;;;;;;;6.72;100.00;62689.28;5077664;28;20236;-76
2022/12/31 01:33:36;;;;;;;14.18;8.68;;;;;;;6.74;100.00;62693.88;5090398;28;20239;-77
2022/12/31 01:36:04;;;;;;;19.92;12.52;;;;;;;6.74;100.00;62694.41;5084410;28;20225;-76
2022/12/31 01:38:31;;;;;;;28.90;15.50;;;;;;;6.68;100.00;62685.16;5089020;28;20383;-76
2022/12/31 01:40:58;;;;;;;20.65;13.73;;;;;;;6.61;100.00;62678.44;5090165;28;20224;-74
2022/12/31 01:43:39;;;;;;;23.17;12.85;;;;;;;6.59;100.00;62675.88;5087648;28;20200;-76
2022/12/31 01:46:10;;;;;;;16.50;10.95;;;;;;;6.45;100.00;62661.97;5079595;28;20229;-75
2022/12/31 01:48:38;;;;;;;17.30;12.10;;;;;;;6.41;100.00;62660.38;5087937;28;20200;-76
2022/12/31 01:51:06;;;;;;;24.13;13.45;;;;;;;6.32;100.00;62650.56;5079211;28;20563;-76
2022/12/31 01:53:33;;;;;;;19.85;12.82;;;;;;;6.33;100.00;62651.59;5088996;28;20280;-74
2022/12/31 01:56:02;;;;;;;21.77;13.52;;;;;;;6.26;100.00;62646.91;5089915;28;20280;-77
2022/12/31 01:58:34;;;;;;;20.13;12.98;;;;;;;6.18;100.00;62628.56;5089417;28;20200;-76
2022/12/31 02:01:01;;;;;;;13.88;8.75;;;;;;;6.16;100.00;62636.59;5085671;28;20434;-76
2022/12/31 02:03:30;;;;;;;12.25;8.05;;;;;;;6.14;100.00;62629.47;5090557;28;20211;-75
2022/12/31 02:06:10;;;;;;;13.73;8.55;;;;;;;6.06;100.00;62621.75;5094044;28;20581;-76
2022/12/31 02:08:37;;;;;;;11.75;7.70;;;;;;;6.06;100.00;62626.31;5090898;28;20218;-75
2022/12/31 02:11:21;;;;;;;10.73;9.00;;;;;;;5.94;100.00;62611.91;5079446;28;20273;-77
2022/12/31 02:13:48;;;;;;;14.43;7.43;;;;;;;5.92;100.00;62607.31;5073946;28;20412;-76
2022/12/31 02:16:20;;;;;;;13.15;8.85;;;;;;;5.90;100.00;62607.28;5088266;28;20291;-75
2022/12/31 02:18:57;;;;;;;10.60;7.95;;;;;;;5.89;100.00;62604.22;5092278;28;20280;-75
2022/12/31 02:21:45;;;;;;;11.90;7.95;;;;;;;5.90;100.00;62605.28;5088063;28;20390;-75
2022/12/31 02:24:45;;;;;;;14.60;8.43;;;;;;;5.84;100.00;62602.13;5088122;28;20215;-76
2022/12/31 02:27:18;;;;;;;10.50;6.90;;;;;;;5.80;100.00;62594.94;5089007;28;20212;-76
2022/12/31 02:30:03;;;;;;;12.20;8.00;;;;;;;5.80;100.00;62595.44;5088213;28;20218;-76
2022/12/31 02:32:42;;;;;;;10.43;7.20;;;;;;;5.80;100.00;62592.41;5088524;28;20247;-76
2022/12/31 02:35:13;;;;;;;10.75;7.47;;;;;;;5.75;100.00;62592.31;5085581;28;20424;-75
2022/12/31 02:37:44;;;;;;;13.18;6.70;;;;;;;5.76;100.00;62591.31;5087450;28;20228;-76
2022/12/31 02:40:15;;;;;;;9.90;6.75;;;;;;;5.71;100.00;62585.66;5083854;28;20219;-76
2022/12/31 02:42:42;;;;;;;10.73;6.78;;;;;;;5.68;100.00;62585.59;5086201;28;20250;-76
2022/12/31 02:45:16;;;;;;;10.52;6.32;;;;;;;5.71;100.00;62590.72;5068288;28;20197;-76
2022/12/31 02:47:56;;;;;;;7.85;6.55;;;;;;;5.68;100.00;62587.63;5074602;28;20197;-76
2022/12/31 02:50:36;;;;;;;7.63;5.88;;;;;;;5.63;100.00;62577.41;5078783;28;20279;-76
2022/12/31 02:53:19;;;;;;;10.82;6.93;;;;;;;5.71;100.00;62586.16;5089723;28;20200;-76
2022/12/31 02:55:52;;;;;;;10.60;7.15;;;;;;;5.69;100.00;62583.59;5088080;28;20224;-75
2022/12/31 03:04:30;;;;;;;6.90;6.20;;;;;;;5.57;100.00;62571.25;5068276;28;20506;-76
2022/12/31 03:06:52;;;;;;;9.63;6.63;;;;;;;5.51;100.00;62565.06;5081788;28;20225;-76
2022/12/31 03:09:19;;;;;;;10.43;7.03;;;;;;;5.51;100.00;62570.63;5084759;28;20231;-76
2022/12/31 03:14:31;;;;;;;7.72;6.40;;;;;;;5.55;100.00;62572.22;5072486;28;20284;-75
2022/12/31 03:16:59;;;;;;;6.90;6.22;;;;;;;5.47;100.00;62561.44;5075095;28;20241;-76
2022/12/31 03:22:27;;;;;;;12.07;6.32;;;;;;;5.58;100.00;62577.31;5088832;28;20318;-76
2022/12/31 03:27:39;;;;;;;9.05;6.75;;;;;;;5.45;100.00;62556.84;5087099;28;20223;-75
2022/12/31 03:30:08;;;;;;;7.78;5.85;;;;;;;5.46;100.00;62562.44;5087826;28;20298;-75
2022/12/31 03:32:36;;;;;;;7.25;5.50;;;;;;;5.47;100.00;62566.00;5084602;28;20270;-76
2022/12/31 03:35:03;;;;;;;8.07;5.40;;;;;;;5.37;100.00;62553.16;5083457;28;20224;-76
2022/12/31 03:37:30;;;;;;;9.90;5.88;;;;;;;5.24;100.00;62542.81;5085421;28;20242;-75
2022/12/31 03:39:57;;;;;;;8.80;5.68;;;;;;;5.32;100.00;62548.00;5085760;28;20201;-77
2022/12/31 03:42:24;;;;;;;6.80;6.10;;;;;;;5.03;100.00;62518.66;5079231;28;20225;-76
2022/12/31 03:44:51;;;;;;;7.85;5.70;;;;;;;4.94;100.00;62501.28;5080120;28;20363;-76
2022/12/31 03:47:18;;;;;;;7.35;6.07;;;;;;;4.88;100.00;62503.22;5086777;28;20232;-76
2022/12/31 03:49:46;;;;;;;10.75;6.82;;;;;;;4.92;100.00;62507.31;5086034;28;20197;-76
2022/12/31 03:52:13;;;;;;;10.48;5.95;;;;;;;4.96;100.00;62510.94;5078423;28;20221;-77
2022/12/31 03:54:41;;;;;;;12.77;5.88;;;;;;;4.98;100.00;62510.47;5075243;28;20228;-76
2022/12/31 03:57:07;;;;;;;8.43;6.00;;;;;;;4.95;100.00;62509.91;5080322;28;20228;-77
2022/12/31 03:59:34;;;;;;;8.93;5.50;;;;;;;5.02;100.00;62514.59;5090193;28;20196;-76
2022/12/31 04:02:02;;;;;;;6.53;5.82;;;;;;;5.02;100.00;62517.13;5087828;28;20310;-76
2022/12/31 04:04:29;;;;;;;7.47;6.10;;;;;;;4.94;100.00;62503.81;5086274;28;20208;-76
2022/12/31 04:06:57;;;;;;;8.32;6.72;;;;;;;5.06;100.00;62521.22;5086254;28;20236;-76
2022/12/31 04:09:24;;;;;;;8.35;6.65;;;;;;;5.02;100.00;62514.59;5082098;28;20200;-76
2022/12/31 04:11:51;;;;;;;9.90;7.00;;;;;;;5.00;100.00;62518.09;5084141;28;20218;-76
2022/12/31 04:14:18;;;;;;;11.05;6.38;;;;;;;5.07;100.00;62522.25;5086501;28;20236;-76
2022/12/31 04:16:46;;;;;;;6.25;5.55;;;;;;;5.07;100.00;62522.78;5079354;28;20236;-76
2022/12/31 04:19:13;;;;;;;8.43;5.82;;;;;;;5.04;100.00;62514.63;5081850;28;20213;-76
2022/12/31 04:21:39;;;;;;;6.18;4.53;;;;;;;4.97;100.00;62511.97;5081288;28;20481;-77
2022/12/31 04:24:08;;;;;;;5.78;5.10;;;;;;;5.05;100.00;62515.16;5087888;28;20204;-76
2022/12/31 04:26:36;;;;;;;5.35;4.53;;;;;;;5.02;100.00;62514.59;5085670;28;20224;-76
2022/12/31 04:29:03;;;;;;;6.10;4.60;;;;;;;5.01;100.00;62514.06;5076878;28;20235;-76
2022/12/31 04:31:30;;;;;;;5.97;5.03;;;;;;;5.09;100.00;62522.31;5084270;28;20337;-76
2022/12/31 04:33:57;;;;;;;6.70;4.90;;;;;;;5.10;100.00;62525.34;5072860;28;20217;-76
2022/12/31 04:36:24;;;;;;;4.97;4.50;;;;;;;5.03;100.00;62518.13;5070803;28;20491;-76
2022/12/31 04:38:50;;;;;;;5.53;5.00;;;;;;;5.07;100.00;62519.75;5086813;28;20219;-77
2022/12/31 04:41:19;;;;;;;6.25;5.28;;;;;;;5.06;100.00;62519.22;5085528;28;20274;-76
2022/12/31 04:43:48;;;;;;;5.22;4.82;;;;;;;5.02;100.00;62520.13;5080360;28;20200;-77
2022/12/31 04:46:16;;;;;;;5.82;5.22;;;;;;;5.03;100.00;62520.66;5082314;28;20217;-77
2022/12/31 04:48:44;;;;;;;8.07;6.03;;;;;;;5.06;100.00;62521.75;5077849;28;20197;-76
2022/12/31 04:51:11;;;;;;;8.57;6.18;;;;;;;5.06;100.00;62518.69;5083216;28;20505;-76
2022/12/31 04:53:39;;;;;;;11.25;6.05;;;;;;;5.06;100.00;62519.22;5083204;28;20223;-76
2022/12/31 04:56:07;;;;;;;5.70;5.20;;;;;;;4.64;100.00;62473.97;5066247;28;20237;-75
2022/12/31 04:58:37;;;;;;;5.38;4.63;;;;;;;4.98;100.00;62513.00;5077505;28;20208;-76
2022/12/31 05:01:04;;;;;;;5.38;4.90;;;;;;;4.98;100.00;62507.94;5082848;28;20208;-77
2022/12/31 05:03:32;;;;;;;5.03;4.53;;;;;;;4.95;100.00;62507.38;5083460;28;20258;-77
2022/12/31 05:06:01;;;;;;;4.63;4.22;;;;;;;4.96;100.00;62513.97;5081382;28;20424;-77
2022/12/31 05:08:29;;;;;;;4.95;4.55;;;;;;;4.89;100.00;62504.25;5076704;28;20204;-77
2022/12/31 05:10:56;;;;;;;5.10;4.57;;;;;;;4.81;100.00;62492.97;5083583;28;20563;-76
2022/12/31 05:13:23;;;;;;;7.22;4.95;;;;;;;4.86;100.00;62500.63;5079335;28;20200;-75
2022/12/31 05:15:52;;;;;;;7.85;5.40;;;;;;;4.85;100.00;62494.56;5074205;28;20237;-77
2022/12/31 05:18:19;;;;;;;6.20;5.60;;;;;;;4.85;100.00;62495.06;5077638;28;20214;-75
2022/12/31 05:20:47;;;;;;;9.45;6.40;;;;;;;4.86;100.00;62498.13;5078616;28;20220;-75
2022/12/31 05:23:14;;;;;;;7.82;6.68;;;;;;;4.79;100.00;62493.44;5075079;28;20388;-76
2022/12/31 05:25:43;;;;;;;7.38;6.60;;;;;;;4.72;100.00;62484.75;5068990;28;20585;-76
2022/12/31 05:28:10;;;;;;;8.40;7.47;;;;;;;4.69;100.00;62484.16;5080973;28;20265;-76
2022/12/31 05:30:37;;;;;;;12.23;8.30;;;;;;;4.68;100.00;62478.09;5079539;28;20201;-76
2022/12/31 05:33:05;;;;;;;11.77;8.68;;;;;;;4.60;100.00;62472.38;5080079;28;20222;-77
2022/12/31 05:35:32;;;;;;;13.65;9.77;;;;;;;4.58;100.00;62470.31;5081865;28;20228;-77
2022/12/31 05:38:00;;;;;;;13.50;9.60;;;;;;;4.49;100.00;62461.06;5084569;28;20205;-76
2022/12/31 05:40:27;;;;;;;11.40;8.55;;;;;;;4.44;100.00;62458.44;5085484;28;20204;-75
2022/12/31 05:42:54;;;;;;;17.08;7.90;;;;;;;4.35;100.00;62443.59;5063737;28;20217;-77
2022/12/31 05:45:21;;;;;;;10.15;8.02;;;;;;;4.34;100.00;62445.09;5083140;28;20359;-75
2022/12/31 05:47:48;;;;;;;7.25;6.32;;;;;;;4.30;100.00;62441.50;5080747;28;20567;-76
2022/12/31 05:50:17;;;;;;;11.77;8.00;;;;;;;4.30;100.00;62443.50;5082919;28;20227;-76
2022/12/31 05:52:45;;;;;;;9.40;7.25;;;;;;;4.31;100.00;62444.53;5086212;28;20200;-76
2022/12/31 05:55:13;;;;;;;12.98;7.50;;;;;;;4.30;100.00;62444.03;5081914;28;20303;-77
2022/12/31 05:57:40;;;;;;;13.77;8.93;;;;;;;4.29;100.00;62439.97;5085502;28;20247;-76
2022/12/31 06:00:09;;;;;;;10.85;7.97;;;;;;;4.27;100.00;62440.94;5075976;28;20377;-75
2022/12/31 06:02:36;;;;;;;13.43;8.32;;;;;;;3.87;100.00;62399.78;5079877;28;20228;-77
2022/12/31 06:05:03;;;;;;;8.70;6.15;;;;;;;4.37;100.00;62448.19;5085157;28;20193;-77
2022/12/31 06:07:31;;;;;;;6.80;6.00;;;;;;;4.34;100.00;62445.09;5085790;28;20259;-76
2022/12/31 06:09:58;;;;;;;9.32;7.57;;;;;;;4.27;100.00;62443.47;5071958;28;20201;-75
2022/12/31 06:12:25;;;;;;;10.93;7.05;;;;;;;4.37;100.00;62445.66;5082445;28;20240;-77
2022/12/31 06:14:52;;;;;;;7.07;6.38;;;;;;;4.33;100.00;62441.56;5074148;28;20236;-76
2022/12/31 06:17:21;;;;;;;11.65;7.85;;;;;;;4.37;100.00;62450.72;5066167;28;20255;-76
2022/12/31 06:19:48;;;;;;;19.75;10.27;;;;;;;4.36;100.00;62449.69;5072113;28;20246;-76
2022/12/31 06:22:14;;;;;;;16.38;10.07;;;;;;;4.34;100.00;62443.09;5078722;28;20541;-76
2022/12/31 06:24:43;;;;;;;13.15;9.55;;;;;;;4.46;100.00;62459.97;5077665;28;20209;-76
2022/12/31 06:27:10;;;;;;;13.23;8.75;;;;;;;4.50;100.00;62461.56;5066296;28;20334;-77
2022/12/31 06:29:37;;;;;;;19.52;12.18;;;;;;;4.50;100.00;62461.56;5077956;28;20473;-75
2022/12/31 06:32:04;;;;;;;17.50;10.75;;;;;;;4.53;100.00;62469.69;5078892;28;20225;-78
2022/12/31 06:34:31;;;;;;;20.35;11.20;;;;;;;4.64;100.00;62473.97;5085660;28;20200;-76
2022/12/31 06:36:58;;;;;;;12.70;9.43;;;;;;;4.66;100.00;62478.56;5087566;28;20232;-77
2022/12/31 06:39:25;;;;;;;10.85;8.00;;;;;;;4.84;100.00;62499.09;5084018;28;20471;-75
2022/12/31 06:41:54;;;;;;;12.85;8.90;;;;;;;4.85;100.00;62500.13;5087492;28;20449;-75
2022/12/31 06:44:22;;;;;;;9.90;6.63;;;;;;;4.89;100.00;62504.25;5084120;28;20203;-78
2022/12/31 06:46:49;;;;;;;15.88;9.02;;;;;;;4.90;100.00;62504.75;5087242;28;20393;-76
2022/12/31 06:49:16;;;;;;;30.63;15.68;;;;;;;4.95;100.00;62509.91;5089202;28;20534;-77
2022/12/31 06:51:44;;;;;;;26.92;16.85;;;;;;;5.00;100.00;62512.53;5084179;28;20217;-76
2022/12/31 06:54:12;;;;;;;26.98;15.65;;;;;;;5.05;100.00;62515.69;5067127;28;20212;-76
2022/12/31 06:56:40;;;;;;;27.58;17.77;;;;;;;5.15;100.00;62530.50;5072554;28;20224;-77
2022/12/31 06:59:22;;;;;;;28.13;17.65;;;;;;;5.22;100.00;62535.19;5069898;28;20204;-77
2022/12/31 07:02:01;;;;;;;31.60;18.38;;;;;;;5.31;100.00;62546.97;5079327;28;20232;-76
2022/12/31 07:04:57;;;;;;;28.15;16.90;;;;;;;5.31;100.00;62549.50;5084982;28;21054;-77
2022/12/31 07:07:31;;;;;;;27.25;16.33;;;;;;;5.42;100.00;62553.78;5083534;28;20213;-76
2022/12/31 07:10:06;;;;;;;27.52;16.63;;;;;;;5.53;100.00;62570.16;5084750;28;20211;-75
2022/12/31 07:12:44;;;;;;;24.58;15.60;;;;;;;5.69;100.00;62583.59;5081972;28;20617;-76
2022/12/31 07:15:20;;;;;;;23.63;14.10;;;;;;;5.80;100.00;62595.44;5077304;28;20232;-76
2022/12/31 07:17:55;;;;;;;22.10;13.15;;;;;;;5.94;100.00;62609.38;5087994;28;20249;-76
2022/12/31 07:20:27;;;;;;;22.02;13.25;;;;;;;6.25;100.00;62643.34;5089734;28;20227;-76
2022/12/31 07:22:55;;;;;;;22.52;14.68;;;;;;;6.62;100.00;62681.50;5086023;28;20200;-76
2022/12/31 07:25:23;;;;;;;23.92;12.55;;;;;;;6.93;100.00;62708.41;5079192;28;20267;-77
2022/12/31 07:28:03;;;;;;;20.38;11.73;;;;;;;7.13;100.00;62731.56;5079807;28;20228;-76
2022/12/31 07:30:42;;;;;;;20.17;12.30;;;;;;;7.22;100.00;62743.41;5080755;28;20250;-76
2022/12/31 07:33:22;;;;;;;19.02;11.65;;;;;;;7.19;100.00;62739.78;5078910;28;20204;-76
2022/12/31 07:35:56;;;;;;;23.77;12.38;;;;;;;7.19;100.00;62739.78;5084426;28;20232;-77
2022/12/31 07:38:36;;;;;;;20.10;11.27;;;;;;;7.20;100.00;62738.78;5085093;28;20208;-75
2022/12/31 07:41:12;;;;;;;20.65;11.27;;;;;;;7.28;100.00;62744.53;5080911;28;20248;-76
2022/12/31 07:43:56;;;;;;;21.00;12.00;;;;;;;7.22;100.00;62740.34;5075889;28;20331;-76
2022/12/31 07:46:33;;;;;;;16.20;10.93;;;;;;;7.23;100.00;62741.38;5081030;28;20221;-77
2022/12/31 07:49:01;;;;;;;15.90;11.35;;;;;;;7.21;100.00;62736.78;5087670;28;20501;-76
2022/12/31 07:51:29;;;;;;;19.92;12.68;;;;;;;7.29;100.00;62748.09;5082688;28;20228;-76
2022/12/31 07:53:56;;;;;;;20.42;13.50;;;;;;;7.39;100.00;62757.88;5084069;28;20271;-76
2022/12/31 07:56:24;;;;;;;24.15;14.85;;;;;;;7.23;100.00;62743.91;5078610;28;20593;-78
2022/12/31 07:59:05;;;;;;;30.42;14.40;;;;;;;7.15;100.00;62736.16;5084368;28;20197;-76
2022/12/31 08:01:44;;;;;;;24.35;15.30;;;;;;;7.26;100.00;62744.47;5078530;28;20392;-75
2022/12/31 08:04:21;;;;;;;22.10;14.35;;;;;;;7.19;100.00;62739.78;5086615;28;20265;-75
2022/12/31 08:06:56;;;;;;;20.30;13.82;;;;;;;7.14;100.00;62734.63;5079988;28;20603;-79
2022/12/31 08:09:36;;;;;;;22.70;13.98;;;;;;;7.16;100.00;62736.69;5077794;28;20207;-74
2022/12/31 08:12:03;;;;;;;21.55;13.38;;;;;;;7.03;100.00;62721.78;5076037;28;20231;-78
2022/12/31 08:14:32;;;;;;;26.60;15.55;;;;;;;7.26;100.00;62747.00;5084921;28;20208;-75
2022/12/31 08:17:01;;;;;;;26.60;15.55;;;;;;;7.39;100.00;62760.94;5078541;28;20239;-75
2022/12/31 08:19:30;;;;;;;23.50;14.93;;;;;;;7.42;100.00;62761.00;5078234;28;20193;-77
2022/12/31 08:22:11;;;;;;;21.27;14.48;;;;;;;7.50;100.00;62772.28;5070158;28;20544;-76
2022/12/31 08:24:50;;;;;;;21.90;14.73;;;;;;;7.56;100.00;62780.50;5081569;28;20210;-76
2022/12/31 08:27:24;;;;;;;23.50;13.88;;;;;;;7.52;100.00;62774.38;5079549;28;20224;-77
2022/12/31 08:30:03;;;;;;;22.80;14.82;;;;;;;7.48;100.00;62772.25;5073757;28;20212;-77
2022/12/31 08:32:38;;;;;;;18.67;13.10;;;;;;;7.57;100.00;62782.06;5070895;28;20218;-77
2022/12/31 08:35:23;;;;;;;20.13;13.13;;;;;;;7.67;100.00;62784.25;5072784;28;20204;-76
2022/12/31 08:37:59;;;;;;;23.30;14.25;;;;;;;7.83;100.00;62800.78;5077812;28;20242;-76
2022/12/31 08:40:33;;;;;;;22.52;13.35;;;;;;;7.94;100.00;62817.72;5078353;28;20197;-76
2022/12/31 08:43:16;;;;;;;23.77;13.57;;;;;;;7.98;100.00;62816.25;5076681;28;20462;-76
2022/12/31 08:45:48;;;;;;;21.85;14.85;;;;;;;8.07;100.00;62823.53;5076754;28;20221;-77
2022/12/31 08:48:25;;;;;;;21.00;12.52;;;;;;;8.13;100.00;62834.28;5072772;28;20202;-77
2022/12/31 08:50:53;;;;;;;20.08;13.00;;;;;;;8.13;100.00;62834.28;5076594;28;20254;-76
2022/12/31 08:53:21;;;;;;;17.00;12.23;;;;;;;8.34;99.86;62858.00;5070635;28;20197;-76
2022/12/31 08:55:52;;;;;;;21.00;12.75;;;;;;;8.42;97.57;62866.28;5081113;28;20228;-78
2022/12/31 08:58:36;;;;;;;23.42;12.68;;;;;;;8.48;96.64;62864.84;5077841;28;20186;-77
2022/12/31 09:01:06;;;;;;;21.50;13.07;;;;;;;8.45;96.54;62864.31;5077133;28;20500;-77
2022/12/31 09:03:46;;;;;;;20.75;12.60;;;;;;;8.50;97.14;62872.53;5081598;28;20226;-77
2022/12/31 09:06:19;;;;;;;20.15;13.98;;;;;;;8.66;96.51;62886.50;5075438;28;20228;-77
2022/12/31 09:08:52;;;;;;;19.05;12.90;;;;;;;8.69;95.55;62894.16;5072230;28;20231;-76
2022/12/31 09:11:28;;;;;;;16.95;12.25;;;;;;;8.81;95.23;62906.56;5080739;28;20231;-76
2022/12/31 09:14:21;;;;;;;18.58;12.20;;;;;;;8.87;95.04;62908.22;5077911;28;20192;-76
2022/12/31 09:16:59;;;;;;;20.70;13.77;;;;;;;8.80;94.24;62905.53;5064714;28;20236;-75
2022/12/31 09:19:28;;;;;;;22.27;13.50;;;;;;;8.81;94.20;62901.50;5070178;28;20611;-76
2022/12/31 09:21:55;;;;;;;22.25;14.35;;;;;;;8.89;93.29;62909.75;5082193;28;20216;-76
2022/12/31 09:24:23;;;;;;;21.13;13.68;;;;;;;8.57;93.56;62882.28;5074460;28;20239;-74
2022/12/31 09:27:01;;;;;;;17.95;12.48;;;;;;;8.61;94.16;62883.88;5076507;28;20213;-76
2022/12/31 09:32:23;;;;;;;17.70;12.10;;;;;;;8.93;91.54;62916.94;5181124;22;20243;-77
2022/12/31 09:34:56;;;;;;;17.02;11.13;;;;;;;8.92;91.45;62915.91;5061311;28;20190;-78
2022/12/31 09:37:36;;;;;;;16.25;9.73;;;;;;;8.98;90.84;62921.59;5064147;28;20240;-78
2022/12/31 09:40:23;;;;;;;13.88;9.73;;;;;;;9.06;90.98;62935.47;5064393;28;20197;-77
2022/12/31 09:43:18;;;;;;;12.23;8.82;;;;;;;9.27;89.06;62952.09;5061644;28;20201;-78
2022/12/31 09:46:08;;;;;;;12.75;9.45;;;;;;;9.30;88.13;62957.22;5062121;28;20217;-78
2022/12/31 09:49:06;;;;;;;13.82;9.45;;;;;;;9.32;88.18;62959.81;5053426;28;20225;-77
2022/12/31 09:51:42;;;;;;;13.80;9.55;;;;;;;9.39;88.49;62963.47;5045866;28;20232;-77
2022/12/31 09:54:19;;;;;;;11.05;9.30;;;;;;;9.62;87.88;62987.25;5052199;28;20193;-78
2022/12/31 09:56:57;;;;;;;14.25;9.30;;;;;;;9.87;87.58;63013.63;5066621;28;20239;-78
2022/12/31 09:59:31;;;;;;;18.63;12.68;;;;;;;9.82;86.58;63008.44;5068623;28;20383;-78
2022/12/31 10:02:14;;;;;;;18.83;13.57;;;;;;;10.02;85.28;63028.63;5067000;28;20323;-77
2022/12/31 10:04:58;;;;;;;17.23;12.65;;;;;;;10.16;84.39;63045.66;5067938;28;20189;-77
2022/12/31 10:07:36;;;;;;;17.92;12.85;;;;;;;10.21;83.84;63053.38;5066780;28;20231;-75
2022/12/31 10:10:13;;;;;;;17.95;13.15;;;;;;;10.26;83.27;63056.00;5068510;28;20189;-77
2022/12/31 10:13:07;;;;;;;20.45;13.68;;;;;;;10.42;83.25;63073.06;5064164;28;20228;-76
2022/12/31 10:15:48;;;;;;;22.65;14.60;;;;;;;10.39;82.85;63064.88;5063515;28;20228;-76
2022/12/31 10:18:31;;;;;;;23.83;14.93;;;;;;;10.54;82.33;63084.47;5064134;28;20403;-76
2022/12/31 10:21:15;;;;;;;23.27;14.82;;;;;;;10.51;82.20;63083.91;5066421;28;20399;-75
2022/12/31 10:24:05;;;;;;;26.17;16.95;;;;;;;10.34;82.51;63061.75;5066855;28;20463;-76
2022/12/31 10:26:52;;;;;;;23.60;16.90;;;;;;;10.13;83.68;63043.06;5057166;28;20561;-75
2022/12/31 10:29:25;;;;;;;26.30;17.15;;;;;;;9.95;85.51;63023.91;5063086;28;20197;-76
2022/12/31 10:32:14;;;;;;;24.88;16.90;;;;;;;10.32;84.16;63064.75;5065347;28;20272;-76
2022/12/31 10:34:53;;;;;;;28.10;16.60;;;;;;;10.44;83.74;63074.63;5061420;28;20202;-76
2022/12/31 10:37:25;;;;;;;27.63;16.13;;;;;;;10.60;82.84;63090.66;5068977;28;20264;-76
2022/12/31 10:40:05;;;;;;;27.95;17.20;;;;;;;10.66;83.20;63096.88;5061977;28;20202;-76
2022/12/31 10:43:10;;;;;;;25.25;16.48;;;;;;;10.91;82.14;63125.84;5063110;28;20259;-75
2022/12/31 10:46:03;;;;;;;28.17;17.48;;;;;;;11.01;79.72;63130.59;5062625;28;20194;-76
2022/12/31 10:48:59;;;;;;;31.52;18.23;;;;;;;10.91;80.46;63125.31;5061576;28;20266;-75
2022/12/31 10:51:55;;;;;;;26.98;17.58;;;;;;;10.97;80.49;63124.41;5061261;28;20232;-77
2022/12/31 10:55:07;;;;;;;33.10;20.52;;;;;;;10.84;79.88;63118.59;5020572;28;20249;-75
2022/12/31 10:58:00;;;;;;;30.38;19.10;;;;;;;10.83;79.75;63115.00;5055947;28;20230;-75
2022/12/31 11:00:30;;;;;;;30.42;17.95;;;;;;;10.67;80.85;63093.34;5066829;28;20202;-74
2022/12/31 11:03:38;;;;;;;35.22;20.10;;;;;;;10.50;82.22;63078.31;5065007;28;20263;-75
2022/12/31 11:06:46;;;;;;;29.75;18.20;;;;;;;10.76;81.44;63102.66;5064617;28;20221;-76
2022/12/31 11:09:36;;;;;;;31.15;19.67;;;;;;;10.96;80.04;63133.56;5064669;28;20193;-76
2022/12/31 11:12:18;;;;;;;25.70;17.73;;;;;;;10.90;79.45;63124.28;5067411;28;20221;-74
2022/12/31 11:15:32;;;;;;;28.48;18.48;;;;;;;10.99;79.43;63131.56;5063357;28;20213;-76
2022/12/31 11:18:06;;;;;;;26.67;18.42;;;;;;;11.14;78.63;63146.59;5061926;28;20241;-76
2022/12/31 11:20:55;;;;;;;31.50;19.67;;;;;;;10.97;78.21;63131.53;5064484;28;20197;-75
2022/12/31 11:23:35;;;;;;;30.15;19.13;;;;;;;11.00;78.50;63132.09;5064654;28;20204;-77
2022/12/31 11:26:12;;;;;;;30.42;19.35;;;;;;;11.08;78.25;63140.38;5064264;28;20545;-76
2022/12/31 11:29:14;;;;;;;31.08;20.08;;;;;;;11.16;78.35;63151.72;5063599;28;20235;-75
2022/12/31 11:31:56;;;;;;;25.58;17.83;;;;;;;11.21;77.17;63156.38;5048669;28;20233;-75
2022/12/31 11:34:51;;;;;;;26.65;18.00;;;;;;;11.13;77.20;63146.06;5055549;28;20391;-75
2022/12/31 11:37:31;;;;;;;30.15;20.33;;;;;;;11.12;78.18;63141.97;5050829;28;20247;-76
2022/12/31 11:40:15;;;;;;;29.42;17.52;;;;;;;11.28;77.19;63161.09;5055261;28;20548;-74
2022/12/31 11:42:52;;;;;;;27.05;17.23;;;;;;;11.34;76.21;63164.75;5068343;28;20217;-75
2022/12/31 11:45:33;;;;;;;25.25;17.85;;;;;;;11.46;76.02;63182.28;5047880;28;20202;-77
2022/12/31 11:48:15;;;;;;;29.13;17.85;;;;;;;11.62;74.65;63196.31;5055273;28;20212;-75
2022/12/31 11:50:50;;;;;;;27.95;18.60;;;;;;;11.64;74.52;63198.41;5066713;28;20221;-73
2022/12/31 11:53:34;;;;;;;26.20;16.75;;;;;;;11.62;73.32;63196.31;5059759;28;20200;-74
2022/12/31 11:56:11;;;;;;;25.63;16.92;;;;;;;11.65;74.01;63196.38;5048661;28;20218;-74
2022/12/31 11:58:42;;;;;;;28.70;17.27;;;;;;;11.77;73.74;63208.81;5064220;28;20221;-76
2022/12/31 12:01:13;;;;;;;25.77;17.83;;;;;;;11.91;73.28;63225.84;5063450;28;21225;-75
2022/12/31 12:03:42;;;;;;;22.80;16.40;;;;;;;12.11;72.18;63244.56;5064755;28;20208;-74
2022/12/31 12:06:12;;;;;;;23.75;16.63;;;;;;;12.22;70.89;63258.50;5051243;28;20229;-74
2022/12/31 12:08:40;;;;;;;24.45;17.20;;;;;;;12.00;70.72;63230.59;5063863;28;20424;-73
2022/12/31 12:11:13;;;;;;;24.92;17.17;;;;;;;11.97;71.32;63232.59;5064527;28;20554;-74